sensor_id;sensor_type;location;lat;lon;timestamp;temperature;humidity
21108;DHT22;10712;52.944;9.098;2023-08-06T00:00:06;15.30;91.10
21108;DHT22;10712;52.944;9.098;2023-08-06T00:02:34;15.30;91.00
21108;DHT22;10712;52.944;9.098;2023-08-06T00:05:00;15.30;91.10
21108;DHT22;10712;52.944;9.098;2023-08-06T00:07:26;15.30;91.10
21108;DHT22;10712;52.944;9.098;2023-08-06T00:09:52;15.20;90.90
21108;DHT22;10712;52.944;9.098;2023-08-06T00:12:18;15.30;91.00
21108;DHT22;10712;52.944;9.098;2023-08-06T00:14:44;15.20;91.20
21108;DHT22;10712;52.944;9.098;2023-08-06T00:17:10;15.30;91.20
21108;DHT22;10712;52.944;9.098;2023-08-06T00:19:36;15.20;91.10
21108;DHT22;10712;52.944;9.098;2023-08-06T00:22:02;15.20;91.10
21108;DHT22;10712;52.944;9.098;2023-08-06T00:24:28;15.20;91.00
21108;DHT22;10712;52.944;9.098;2023-08-06T00:26:54;15.10;91.10
21108;DHT22;10712;52.944;9.098;2023-08-06T00:29:19;15.20;91.40
21108;DHT22;10712;52.944;9.098;2023-08-06T00:31:45;15.20;91.50
21108;DHT22;10712;52.944;9.098;2023-08-06T00:34:11;15.20;91.60
21108;DHT22;10712;52.944;9.098;2023-08-06T00:36:37;15.20;91.50
21108;DHT22;10712;52.944;9.098;2023-08-06T00:39:02;15.20;91.60
21108;DHT22;10712;52.944;9.098;2023-08-06T00:41:28;15.20;91.40
21108;DHT22;10712;52.944;9.098;2023-08-06T00:43:54;15.20;91.50
21108;DHT22;10712;52.944;9.098;2023-08-06T00:46:20;15.20;91.60
21108;DHT22;10712;52.944;9.098;2023-08-06T00:48:46;15.20;91.60
21108;DHT22;10712;52.944;9.098;2023-08-06T00:51:13;15.20;91.60
21108;DHT22;10712;52.944;9.098;2023-08-06T00:53:40;15.20;91.50
21108;DHT22;10712;52.944;9.098;2023-08-06T00:56:06;15.20;91.50
21108;DHT22;10712;52.944;9.098;2023-08-06T00:58:35;15.20;91.50
21108;DHT22;10712;52.944;9.098;2023-08-06T01:01:02;15.20;91.50
21108;DHT22;10712;52.944;9.098;2023-08-06T01:03:28;15.20;91.60
21108;DHT22;10712;52.944;9.098;2023-08-06T01:05:54;15.20;91.60
21108;DHT22;10712;52.944;9.098;2023-08-06T01:08:49;15.10;91.40
21108;DHT22;10712;52.944;9.098;2023-08-06T01:11:35;15.20;91.60
21108;DHT22;10712;52.944;9.098;2023-08-06T01:14:28;15.10;91.70
21108;DHT22;10712;52.944;9.098;2023-08-06T01:16:59;15.10;91.50
21108;DHT22;10712;52.944;9.098;2023-08-06T01:19:27;15.10;91.50
21108;DHT22;10712;52.944;9.098;2023-08-06T01:21:52;15.10;91.50
21108;DHT22;10712;52.944;9.098;2023-08-06T01:24:18;15.10;91.50
21108;DHT22;10712;52.944;9.098;2023-08-06T01:26:51;15.00;91.30
21108;DHT22;10712;52.944;9.098;2023-08-06T01:29:41;15.00;91.50
21108;DHT22;10712;52.944;9.098;2023-08-06T01:32:14;15.00;91.50
21108;DHT22;10712;52.944;9.098;2023-08-06T01:34:43;15.00;91.80
21108;DHT22;10712;52.944;9.098;2023-08-06T01:37:11;15.00;91.90
21108;DHT22;10712;52.944;9.098;2023-08-06T01:39:40;15.00;91.80
21108;DHT22;10712;52.944;9.098;2023-08-06T01:42:08;15.00;91.90
21108;DHT22;10712;52.944;9.098;2023-08-06T01:44:34;15.00;91.80
21108;DHT22;10712;52.944;9.098;2023-08-06T01:47:00;14.90;91.60
21108;DHT22;10712;52.944;9.098;2023-08-06T01:49:25;14.90;91.70
21108;DHT22;10712;52.944;9.098;2023-08-06T01:51:53;14.80;91.80
21108;DHT22;10712;52.944;9.098;2023-08-06T01:54:19;14.80;92.00
21108;DHT22;10712;52.944;9.098;2023-08-06T01:56:44;14.70;92.10
21108;DHT22;10712;52.944;9.098;2023-08-06T01:59:10;14.70;92.10
21108;DHT22;10712;52.944;9.098;2023-08-06T02:01:36;14.70;92.40
21108;DHT22;10712;52.944;9.098;2023-08-06T02:04:02;14.70;92.70
21108;DHT22;10712;52.944;9.098;2023-08-06T02:06:28;14.70;92.80
21108;DHT22;10712;52.944;9.098;2023-08-06T02:08:54;14.70;92.70
21108;DHT22;10712;52.944;9.098;2023-08-06T02:11:20;14.70;92.70
21108;DHT22;10712;52.944;9.098;2023-08-06T02:13:46;14.70;92.60
21108;DHT22;10712;52.944;9.098;2023-08-06T02:16:16;14.70;92.30
21108;DHT22;10712;52.944;9.098;2023-08-06T02:18:42;14.70;92.20
21108;DHT22;10712;52.944;9.098;2023-08-06T02:21:07;14.70;92.40
21108;DHT22;10712;52.944;9.098;2023-08-06T02:23:33;14.70;92.60
21108;DHT22;10712;52.944;9.098;2023-08-06T02:26:00;14.70;92.60
21108;DHT22;10712;52.944;9.098;2023-08-06T02:28:29;14.70;92.50
21108;DHT22;10712;52.944;9.098;2023-08-06T02:30:55;14.70;92.40
21108;DHT22;10712;52.944;9.098;2023-08-06T02:33:21;14.70;92.40
21108;DHT22;10712;52.944;9.098;2023-08-06T02:35:47;14.70;92.50
21108;DHT22;10712;52.944;9.098;2023-08-06T02:38:13;14.70;92.50
21108;DHT22;10712;52.944;9.098;2023-08-06T02:40:46;14.70;92.50
21108;DHT22;10712;52.944;9.098;2023-08-06T02:43:13;14.70;92.60
21108;DHT22;10712;52.944;9.098;2023-08-06T02:45:39;14.70;92.60
21108;DHT22;10712;52.944;9.098;2023-08-06T02:48:05;14.70;92.50
21108;DHT22;10712;52.944;9.098;2023-08-06T02:50:38;14.60;92.70
21108;DHT22;10712;52.944;9.098;2023-08-06T02:53:05;14.60;92.90
21108;DHT22;10712;52.944;9.098;2023-08-06T02:55:32;14.70;93.10
21108;DHT22;10712;52.944;9.098;2023-08-06T02:58:00;14.70;93.20
21108;DHT22;10712;52.944;9.098;2023-08-06T03:00:31;14.70;93.30
21108;DHT22;10712;52.944;9.098;2023-08-06T03:02:58;14.70;93.40
21108;DHT22;10712;52.944;9.098;2023-08-06T03:05:41;14.80;93.40
21108;DHT22;10712;52.944;9.098;2023-08-06T03:08:19;14.80;93.30
21108;DHT22;10712;52.944;9.098;2023-08-06T03:10:52;14.80;93.30
21108;DHT22;10712;52.944;9.098;2023-08-06T03:13:19;14.80;93.40
21108;DHT22;10712;52.944;9.098;2023-08-06T03:15:55;14.80;93.40
21108;DHT22;10712;52.944;9.098;2023-08-06T03:18:22;14.80;93.50
21108;DHT22;10712;52.944;9.098;2023-08-06T03:20:49;14.90;93.40
21108;DHT22;10712;52.944;9.098;2023-08-06T03:23:17;14.80;93.40
21108;DHT22;10712;52.944;9.098;2023-08-06T03:25:43;14.80;93.30
21108;DHT22;10712;52.944;9.098;2023-08-06T03:28:12;14.80;93.30
21108;DHT22;10712;52.944;9.098;2023-08-06T03:30:38;14.80;93.30
21108;DHT22;10712;52.944;9.098;2023-08-06T03:33:06;14.80;93.40
21108;DHT22;10712;52.944;9.098;2023-08-06T03:35:31;14.80;93.50
21108;DHT22;10712;52.944;9.098;2023-08-06T03:37:57;14.80;93.60
21108;DHT22;10712;52.944;9.098;2023-08-06T03:40:23;14.80;93.50
21108;DHT22;10712;52.944;9.098;2023-08-06T03:42:49;14.80;93.70
21108;DHT22;10712;52.944;9.098;2023-08-06T03:45:15;14.80;93.60
21108;DHT22;10712;52.944;9.098;2023-08-06T03:47:42;14.80;93.70
21108;DHT22;10712;52.944;9.098;2023-08-06T03:50:08;14.80;93.70
21108;DHT22;10712;52.944;9.098;2023-08-06T03:52:34;14.80;93.80
21108;DHT22;10712;52.944;9.098;2023-08-06T03:55:00;14.80;93.70
21108;DHT22;10712;52.944;9.098;2023-08-06T03:57:26;14.80;93.80
21108;DHT22;10712;52.944;9.098;2023-08-06T03:59:52;14.80;93.90
21108;DHT22;10712;52.944;9.098;2023-08-06T04:02:17;14.90;93.90
21108;DHT22;10712;52.944;9.098;2023-08-06T04:04:43;14.90;93.90
21108;DHT22;10712;52.944;9.098;2023-08-06T04:07:09;14.90;93.90
21108;DHT22;10712;52.944;9.098;2023-08-06T04:09:52;14.90;93.70
21108;DHT22;10712;52.944;9.098;2023-08-06T04:12:25;14.90;93.60
21108;DHT22;10712;52.944;9.098;2023-08-06T04:14:52;14.90;93.60
21108;DHT22;10712;52.944;9.098;2023-08-06T04:17:19;14.90;93.60
21108;DHT22;10712;52.944;9.098;2023-08-06T04:19:51;14.90;93.70
21108;DHT22;10712;52.944;9.098;2023-08-06T04:22:18;14.90;93.60
21108;DHT22;10712;52.944;9.098;2023-08-06T04:24:44;14.90;93.70
21108;DHT22;10712;52.944;9.098;2023-08-06T04:27:11;14.90;93.80
21108;DHT22;10712;52.944;9.098;2023-08-06T04:29:38;14.90;93.70
21108;DHT22;10712;52.944;9.098;2023-08-06T04:32:06;14.90;93.70
21108;DHT22;10712;52.944;9.098;2023-08-06T04:34:34;14.90;93.70
21108;DHT22;10712;52.944;9.098;2023-08-06T04:37:01;14.90;93.90
21108;DHT22;10712;52.944;9.098;2023-08-06T04:39:28;14.90;93.80
21108;DHT22;10712;52.944;9.098;2023-08-06T04:41:55;14.90;93.80
21108;DHT22;10712;52.944;9.098;2023-08-06T04:44:23;14.90;93.80
21108;DHT22;10712;52.944;9.098;2023-08-06T04:46:49;14.90;93.90
21108;DHT22;10712;52.944;9.098;2023-08-06T04:49:16;14.90;93.90
21108;DHT22;10712;52.944;9.098;2023-08-06T04:51:43;14.90;93.90
21108;DHT22;10712;52.944;9.098;2023-08-06T04:54:09;14.90;94.00
21108;DHT22;10712;52.944;9.098;2023-08-06T04:56:35;14.90;93.90
21108;DHT22;10712;52.944;9.098;2023-08-06T04:59:01;14.90;93.80
21108;DHT22;10712;52.944;9.098;2023-08-06T05:01:27;14.90;93.90
21108;DHT22;10712;52.944;9.098;2023-08-06T05:03:53;14.90;94.00
21108;DHT22;10712;52.944;9.098;2023-08-06T05:06:19;14.90;94.00
21108;DHT22;10712;52.944;9.098;2023-08-06T05:08:45;14.90;94.00
21108;DHT22;10712;52.944;9.098;2023-08-06T05:11:11;14.90;94.00
21108;DHT22;10712;52.944;9.098;2023-08-06T05:13:37;14.90;93.80
21108;DHT22;10712;52.944;9.098;2023-08-06T05:16:02;14.90;93.70
21108;DHT22;10712;52.944;9.098;2023-08-06T05:18:28;14.90;93.70
21108;DHT22;10712;52.944;9.098;2023-08-06T05:20:55;14.90;93.70
21108;DHT22;10712;52.944;9.098;2023-08-06T05:23:21;14.90;93.70
21108;DHT22;10712;52.944;9.098;2023-08-06T05:25:47;14.90;93.60
21108;DHT22;10712;52.944;9.098;2023-08-06T05:28:13;14.90;93.80
21108;DHT22;10712;52.944;9.098;2023-08-06T05:30:39;14.90;93.80
21108;DHT22;10712;52.944;9.098;2023-08-06T05:33:06;14.90;93.90
21108;DHT22;10712;52.944;9.098;2023-08-06T05:35:32;14.90;93.90
21108;DHT22;10712;52.944;9.098;2023-08-06T05:37:57;14.90;93.90
21108;DHT22;10712;52.944;9.098;2023-08-06T05:40:23;14.90;93.90
21108;DHT22;10712;52.944;9.098;2023-08-06T05:42:53;14.90;93.90
21108;DHT22;10712;52.944;9.098;2023-08-06T05:45:19;14.80;93.90
21108;DHT22;10712;52.944;9.098;2023-08-06T05:47:45;14.80;94.00
21108;DHT22;10712;52.944;9.098;2023-08-06T05:50:13;14.80;94.10
21108;DHT22;10712;52.944;9.098;2023-08-06T05:52:38;14.90;94.20
21108;DHT22;10712;52.944;9.098;2023-08-06T05:55:04;14.90;94.30
21108;DHT22;10712;52.944;9.098;2023-08-06T05:57:31;14.90;94.30
21108;DHT22;10712;52.944;9.098;2023-08-06T05:59:56;14.90;94.30
21108;DHT22;10712;52.944;9.098;2023-08-06T06:02:22;15.00;94.20
21108;DHT22;10712;52.944;9.098;2023-08-06T06:04:48;14.90;94.20
21108;DHT22;10712;52.944;9.098;2023-08-06T06:07:14;15.00;94.20
21108;DHT22;10712;52.944;9.098;2023-08-06T06:09:40;15.00;94.30
21108;DHT22;10712;52.944;9.098;2023-08-06T06:12:06;15.00;94.30
21108;DHT22;10712;52.944;9.098;2023-08-06T06:14:32;15.00;94.30
21108;DHT22;10712;52.944;9.098;2023-08-06T06:16:59;15.00;94.30
21108;DHT22;10712;52.944;9.098;2023-08-06T06:19:25;15.00;94.20
21108;DHT22;10712;52.944;9.098;2023-08-06T06:21:51;15.10;94.20
21108;DHT22;10712;52.944;9.098;2023-08-06T06:24:18;15.10;94.20
21108;DHT22;10712;52.944;9.098;2023-08-06T06:26:44;15.10;94.00
21108;DHT22;10712;52.944;9.098;2023-08-06T06:29:10;15.10;94.00
21108;DHT22;10712;52.944;9.098;2023-08-06T06:31:35;15.10;93.90
21108;DHT22;10712;52.944;9.098;2023-08-06T06:34:01;15.10;93.70
21108;DHT22;10712;52.944;9.098;2023-08-06T06:36:27;15.10;93.80
21108;DHT22;10712;52.944;9.098;2023-08-06T06:38:53;15.10;93.90
21108;DHT22;10712;52.944;9.098;2023-08-06T06:41:18;15.10;94.00
21108;DHT22;10712;52.944;9.098;2023-08-06T06:43:44;15.20;94.00
21108;DHT22;10712;52.944;9.098;2023-08-06T06:46:10;15.20;93.70
21108;DHT22;10712;52.944;9.098;2023-08-06T06:48:36;15.20;93.70
21108;DHT22;10712;52.944;9.098;2023-08-06T06:51:02;15.20;93.90
21108;DHT22;10712;52.944;9.098;2023-08-06T06:53:28;15.20;94.00
21108;DHT22;10712;52.944;9.098;2023-08-06T06:55:55;15.30;94.00
21108;DHT22;10712;52.944;9.098;2023-08-06T06:58:21;15.30;94.00
21108;DHT22;10712;52.944;9.098;2023-08-06T07:00:48;15.30;93.80
21108;DHT22;10712;52.944;9.098;2023-08-06T07:03:17;15.30;94.00
21108;DHT22;10712;52.944;9.098;2023-08-06T07:05:44;15.30;93.80
21108;DHT22;10712;52.944;9.098;2023-08-06T07:08:10;15.40;93.80
21108;DHT22;10712;52.944;9.098;2023-08-06T07:10:36;15.40;94.00
21108;DHT22;10712;52.944;9.098;2023-08-06T07:13:01;15.50;93.80
21108;DHT22;10712;52.944;9.098;2023-08-06T07:15:27;15.50;93.50
21108;DHT22;10712;52.944;9.098;2023-08-06T07:17:53;15.50;93.30
21108;DHT22;10712;52.944;9.098;2023-08-06T07:20:19;15.50;93.30
21108;DHT22;10712;52.944;9.098;2023-08-06T07:22:45;15.50;93.40
21108;DHT22;10712;52.944;9.098;2023-08-06T07:25:10;15.50;93.20
21108;DHT22;10712;52.944;9.098;2023-08-06T07:27:36;15.60;93.40
21108;DHT22;10712;52.944;9.098;2023-08-06T07:30:02;15.70;93.40
21108;DHT22;10712;52.944;9.098;2023-08-06T07:32:28;15.80;93.40
21108;DHT22;10712;52.944;9.098;2023-08-06T07:34:54;15.80;93.00
21108;DHT22;10712;52.944;9.098;2023-08-06T07:37:25;15.80;92.70
21108;DHT22;10712;52.944;9.098;2023-08-06T07:39:50;15.80;92.30
21108;DHT22;10712;52.944;9.098;2023-08-06T07:42:16;15.80;91.80
21108;DHT22;10712;52.944;9.098;2023-08-06T07:44:42;15.80;92.20
21108;DHT22;10712;52.944;9.098;2023-08-06T07:47:07;15.80;92.30
21108;DHT22;10712;52.944;9.098;2023-08-06T07:49:33;15.80;92.20
21108;DHT22;10712;52.944;9.098;2023-08-06T07:51:59;15.80;92.30
21108;DHT22;10712;52.944;9.098;2023-08-06T07:54:25;15.80;92.10
21108;DHT22;10712;52.944;9.098;2023-08-06T07:56:50;15.80;92.00
21108;DHT22;10712;52.944;9.098;2023-08-06T07:59:16;15.80;92.20
21108;DHT22;10712;52.944;9.098;2023-08-06T08:01:42;15.90;92.70
21108;DHT22;10712;52.944;9.098;2023-08-06T08:04:08;16.00;92.80
21108;DHT22;10712;52.944;9.098;2023-08-06T08:06:34;16.10;92.80
21108;DHT22;10712;52.944;9.098;2023-08-06T08:08:59;16.20;92.80
21108;DHT22;10712;52.944;9.098;2023-08-06T08:11:26;16.30;92.50
21108;DHT22;10712;52.944;9.098;2023-08-06T08:13:52;16.30;92.00
21108;DHT22;10712;52.944;9.098;2023-08-06T08:16:17;16.30;91.80
21108;DHT22;10712;52.944;9.098;2023-08-06T08:18:43;16.40;91.90
21108;DHT22;10712;52.944;9.098;2023-08-06T08:21:09;16.40;92.00
21108;DHT22;10712;52.944;9.098;2023-08-06T08:23:35;16.50;91.40
21108;DHT22;10712;52.944;9.098;2023-08-06T08:26:01;16.60;91.20
21108;DHT22;10712;52.944;9.098;2023-08-06T08:28:27;16.60;91.30
21108;DHT22;10712;52.944;9.098;2023-08-06T08:30:53;16.70;91.20
21108;DHT22;10712;52.944;9.098;2023-08-06T08:33:19;16.70;91.10
21108;DHT22;10712;52.944;9.098;2023-08-06T08:35:46;16.80;91.00
21108;DHT22;10712;52.944;9.098;2023-08-06T08:38:12;16.80;90.60
21108;DHT22;10712;52.944;9.098;2023-08-06T08:40:45;16.90;90.80
21108;DHT22;10712;52.944;9.098;2023-08-06T08:43:14;16.90;90.90
21108;DHT22;10712;52.944;9.098;2023-08-06T08:45:42;17.00;90.90
21108;DHT22;10712;52.944;9.098;2023-08-06T08:48:12;17.10;90.80
21108;DHT22;10712;52.944;9.098;2023-08-06T08:50:40;17.20;90.70
21108;DHT22;10712;52.944;9.098;2023-08-06T08:53:06;17.30;90.50
21108;DHT22;10712;52.944;9.098;2023-08-06T08:55:34;17.30;89.10
21108;DHT22;10712;52.944;9.098;2023-08-06T08:58:00;17.20;88.70
21108;DHT22;10712;52.944;9.098;2023-08-06T09:00:27;17.20;88.20
21108;DHT22;10712;52.944;9.098;2023-08-06T09:02:55;17.10;88.00
21108;DHT22;10712;52.944;9.098;2023-08-06T09:05:23;17.10;87.90
21108;DHT22;10712;52.944;9.098;2023-08-06T09:07:52;17.00;87.90
21108;DHT22;10712;52.944;9.098;2023-08-06T09:10:20;17.10;88.30
21108;DHT22;10712;52.944;9.098;2023-08-06T09:12:51;17.20;88.50
21108;DHT22;10712;52.944;9.098;2023-08-06T09:15:20;17.30;88.90
21108;DHT22;10712;52.944;9.098;2023-08-06T09:17:46;17.40;88.30
21108;DHT22;10712;52.944;9.098;2023-08-06T09:20:13;17.50;87.80
21108;DHT22;10712;52.944;9.098;2023-08-06T09:22:40;17.60;88.10
21108;DHT22;10712;52.944;9.098;2023-08-06T09:25:07;17.70;88.20
21108;DHT22;10712;52.944;9.098;2023-08-06T09:27:39;17.80;88.00
21108;DHT22;10712;52.944;9.098;2023-08-06T09:30:06;17.90;88.20
21108;DHT22;10712;52.944;9.098;2023-08-06T09:32:46;18.00;88.30
21108;DHT22;10712;52.944;9.098;2023-08-06T09:35:18;18.10;87.80
21108;DHT22;10712;52.944;9.098;2023-08-06T09:37:45;18.10;86.90
21108;DHT22;10712;52.944;9.098;2023-08-06T09:40:29;18.10;86.50
21108;DHT22;10712;52.944;9.098;2023-08-06T09:42:57;18.20;86.50
21108;DHT22;10712;52.944;9.098;2023-08-06T09:45:35;18.20;86.40
21108;DHT22;10712;52.944;9.098;2023-08-06T09:48:09;18.20;86.30
21108;DHT22;10712;52.944;9.098;2023-08-06T09:50:37;18.20;86.50
21108;DHT22;10712;52.944;9.098;2023-08-06T09:53:05;18.30;86.70
21108;DHT22;10712;52.944;9.098;2023-08-06T09:55:33;18.40;86.60
21108;DHT22;10712;52.944;9.098;2023-08-06T09:57:59;18.50;86.40
21108;DHT22;10712;52.944;9.098;2023-08-06T10:00:26;18.60;85.80
21108;DHT22;10712;52.944;9.098;2023-08-06T10:02:53;18.80;85.80
21108;DHT22;10712;52.944;9.098;2023-08-06T10:05:24;18.80;85.40
21108;DHT22;10712;52.944;9.098;2023-08-06T10:07:52;18.80;83.90
21108;DHT22;10712;52.944;9.098;2023-08-06T10:10:18;18.80;83.90
21108;DHT22;10712;52.944;9.098;2023-08-06T10:12:50;18.90;83.30
21108;DHT22;10712;52.944;9.098;2023-08-06T10:15:26;18.90;83.20
21108;DHT22;10712;52.944;9.098;2023-08-06T10:17:57;19.00;83.50
21108;DHT22;10712;52.944;9.098;2023-08-06T10:20:25;19.20;83.30
21108;DHT22;10712;52.944;9.098;2023-08-06T10:23:04;19.40;83.00
21108;DHT22;10712;52.944;9.098;2023-08-06T10:25:33;19.50;82.40
21108;DHT22;10712;52.944;9.098;2023-08-06T10:28:01;19.60;82.40
21108;DHT22;10712;52.944;9.098;2023-08-06T10:30:41;19.70;82.40
21108;DHT22;10712;52.944;9.098;2023-08-06T10:33:09;19.80;81.80
21108;DHT22;10712;52.944;9.098;2023-08-06T10:35:43;19.90;81.30
21108;DHT22;10712;52.944;9.098;2023-08-06T10:43:35;20.00;78.30
21108;DHT22;10712;52.944;9.098;2023-08-06T10:46:08;19.90;78.40
21108;DHT22;10712;52.944;9.098;2023-08-06T10:48:41;19.80;77.80
21108;DHT22;10712;52.944;9.098;2023-08-06T10:51:12;19.70;78.40
21108;DHT22;10712;52.944;9.098;2023-08-06T10:53:52;19.70;79.20
21108;DHT22;10712;52.944;9.098;2023-08-06T10:56:24;19.70;79.50
21108;DHT22;10712;52.944;9.098;2023-08-06T10:58:55;19.80;79.50
21108;DHT22;10712;52.944;9.098;2023-08-06T11:01:23;19.90;79.00
21108;DHT22;10712;52.944;9.098;2023-08-06T11:03:50;19.90;78.00
21108;DHT22;10712;52.944;9.098;2023-08-06T11:06:19;19.90;77.30
21108;DHT22;10712;52.944;9.098;2023-08-06T11:08:51;20.00;77.20
21108;DHT22;10712;52.944;9.098;2023-08-06T11:11:18;20.10;76.50
21108;DHT22;10712;52.944;9.098;2023-08-06T11:13:46;20.10;77.10
21108;DHT22;10712;52.944;9.098;2023-08-06T11:16:14;20.20;77.20
21108;DHT22;10712;52.944;9.098;2023-08-06T11:18:41;20.30;77.20
21108;DHT22;10712;52.944;9.098;2023-08-06T11:21:10;20.30;75.50
21108;DHT22;10712;52.944;9.098;2023-08-06T11:23:39;20.20;74.60
21108;DHT22;10712;52.944;9.098;2023-08-06T11:26:06;20.10;74.70
21108;DHT22;10712;52.944;9.098;2023-08-06T11:28:33;20.00;75.20
21108;DHT22;10712;52.944;9.098;2023-08-06T11:30:59;20.00;75.20
21108;DHT22;10712;52.944;9.098;2023-08-06T11:33:28;20.00;75.10
21108;DHT22;10712;52.944;9.098;2023-08-06T11:35:56;20.00;74.70
21108;DHT22;10712;52.944;9.098;2023-08-06T11:38:28;20.10;74.50
21108;DHT22;10712;52.944;9.098;2023-08-06T11:40:54;20.20;75.80
21108;DHT22;10712;52.944;9.098;2023-08-06T11:43:21;20.30;76.50
21108;DHT22;10712;52.944;9.098;2023-08-06T11:45:48;20.30;74.60
21108;DHT22;10712;52.944;9.098;2023-08-06T11:48:16;20.30;75.00
21108;DHT22;10712;52.944;9.098;2023-08-06T11:50:43;20.30;74.90
21108;DHT22;10712;52.944;9.098;2023-08-06T11:53:12;20.30;75.90
21108;DHT22;10712;52.944;9.098;2023-08-06T11:55:42;20.40;75.60
21108;DHT22;10712;52.944;9.098;2023-08-06T11:58:09;20.40;75.10
21108;DHT22;10712;52.944;9.098;2023-08-06T12:00:37;20.50;75.30
21108;DHT22;10712;52.944;9.098;2023-08-06T12:03:04;20.60;74.20
21108;DHT22;10712;52.944;9.098;2023-08-06T12:05:31;20.60;74.10
21108;DHT22;10712;52.944;9.098;2023-08-06T12:08:00;20.70;73.90
21108;DHT22;10712;52.944;9.098;2023-08-06T12:10:29;20.80;73.40
21108;DHT22;10712;52.944;9.098;2023-08-06T12:12:56;20.80;72.10
21108;DHT22;10712;52.944;9.098;2023-08-06T12:15:22;20.70;72.30
21108;DHT22;10712;52.944;9.098;2023-08-06T12:17:49;20.70;73.00
21108;DHT22;10712;52.944;9.098;2023-08-06T12:20:16;20.70;72.60
21108;DHT22;10712;52.944;9.098;2023-08-06T12:22:42;20.80;73.00
21108;DHT22;10712;52.944;9.098;2023-08-06T12:25:09;20.80;73.10
21108;DHT22;10712;52.944;9.098;2023-08-06T12:27:44;20.90;73.10
21108;DHT22;10712;52.944;9.098;2023-08-06T12:30:12;20.90;72.70
21108;DHT22;10712;52.944;9.098;2023-08-06T12:32:38;21.00;72.60
21108;DHT22;10712;52.944;9.098;2023-08-06T12:35:04;21.10;72.40
21108;DHT22;10712;52.944;9.098;2023-08-06T12:37:33;21.20;72.30
21108;DHT22;10712;52.944;9.098;2023-08-06T12:39:59;21.10;70.40
21108;DHT22;10712;52.944;9.098;2023-08-06T12:42:24;21.10;72.00
21108;DHT22;10712;52.944;9.098;2023-08-06T12:44:51;21.20;72.60
21108;DHT22;10712;52.944;9.098;2023-08-06T12:47:18;21.20;72.90
21108;DHT22;10712;52.944;9.098;2023-08-06T12:49:44;21.20;70.20
21108;DHT22;10712;52.944;9.098;2023-08-06T12:52:10;21.10;69.90
21108;DHT22;10712;52.944;9.098;2023-08-06T12:54:38;21.10;69.70
21108;DHT22;10712;52.944;9.098;2023-08-06T12:57:04;21.20;70.70
21108;DHT22;10712;52.944;9.098;2023-08-06T12:59:30;21.30;70.70
21108;DHT22;10712;52.944;9.098;2023-08-06T13:01:58;21.40;71.00
21108;DHT22;10712;52.944;9.098;2023-08-06T13:04:24;21.40;70.70
21108;DHT22;10712;52.944;9.098;2023-08-06T13:06:50;21.40;69.50
21108;DHT22;10712;52.944;9.098;2023-08-06T13:09:16;21.40;69.30
21108;DHT22;10712;52.944;9.098;2023-08-06T13:11:42;21.50;69.40
21108;DHT22;10712;52.944;9.098;2023-08-06T13:14:12;21.50;70.00
21108;DHT22;10712;52.944;9.098;2023-08-06T13:16:41;21.50;70.40
21108;DHT22;10712;52.944;9.098;2023-08-06T13:19:08;21.40;70.20
21108;DHT22;10712;52.944;9.098;2023-08-06T13:24:08;21.30;68.70
21108;DHT22;10712;52.944;9.098;2023-08-06T13:26:34;21.20;68.10
21108;DHT22;10712;52.944;9.098;2023-08-06T13:29:01;21.20;68.20
21108;DHT22;10712;52.944;9.098;2023-08-06T13:31:29;21.20;68.80
21108;DHT22;10712;52.944;9.098;2023-08-06T13:33:55;21.20;70.10
21108;DHT22;10712;52.944;9.098;2023-08-06T13:36:24;21.20;71.60
21108;DHT22;10712;52.944;9.098;2023-08-06T13:38:50;21.20;67.80
21108;DHT22;10712;52.944;9.098;2023-08-06T13:41:16;21.10;68.40
21108;DHT22;10712;52.944;9.098;2023-08-06T13:43:42;21.00;68.90
21108;DHT22;10712;52.944;9.098;2023-08-06T13:46:09;20.90;69.00
21108;DHT22;10712;52.944;9.098;2023-08-06T13:48:40;20.80;69.50
21108;DHT22;10712;52.944;9.098;2023-08-06T13:51:05;20.80;69.80
21108;DHT22;10712;52.944;9.098;2023-08-06T13:53:31;20.80;70.00
21108;DHT22;10712;52.944;9.098;2023-08-06T13:55:57;20.70;70.30
21108;DHT22;10712;52.944;9.098;2023-08-06T13:58:23;20.70;70.20
21108;DHT22;10712;52.944;9.098;2023-08-06T14:00:51;20.70;69.50
21108;DHT22;10712;52.944;9.098;2023-08-06T14:03:18;20.70;69.10
21108;DHT22;10712;52.944;9.098;2023-08-06T14:05:44;20.60;69.60
21108;DHT22;10712;52.944;9.098;2023-08-06T14:08:10;20.60;70.30
21108;DHT22;10712;52.944;9.098;2023-08-06T14:10:36;20.70;69.80
21108;DHT22;10712;52.944;9.098;2023-08-06T14:13:01;20.80;70.70
21108;DHT22;10712;52.944;9.098;2023-08-06T14:15:27;20.80;68.20
21108;DHT22;10712;52.944;9.098;2023-08-06T14:17:53;20.80;67.30
21108;DHT22;10712;52.944;9.098;2023-08-06T14:20:19;20.90;67.30
21108;DHT22;10712;52.944;9.098;2023-08-06T14:22:44;20.90;67.20
21108;DHT22;10712;52.944;9.098;2023-08-06T14:25:10;21.00;68.50
21108;DHT22;10712;52.944;9.098;2023-08-06T14:27:36;21.00;67.80
21108;DHT22;10712;52.944;9.098;2023-08-06T14:30:05;21.10;66.60
21108;DHT22;10712;52.944;9.098;2023-08-06T14:32:32;21.10;67.00
21108;DHT22;10712;52.944;9.098;2023-08-06T14:34:58;21.10;66.90
21108;DHT22;10712;52.944;9.098;2023-08-06T14:37:24;21.20;67.70
21108;DHT22;10712;52.944;9.098;2023-08-06T14:39:50;21.20;68.30
21108;DHT22;10712;52.944;9.098;2023-08-06T14:42:17;21.20;67.90
21108;DHT22;10712;52.944;9.098;2023-08-06T14:44:43;21.30;69.20
21108;DHT22;10712;52.944;9.098;2023-08-06T14:47:09;21.30;69.60
21108;DHT22;10712;52.944;9.098;2023-08-06T14:49:35;21.40;70.80
21108;DHT22;10712;52.944;9.098;2023-08-06T14:52:01;21.40;71.30
21108;DHT22;10712;52.944;9.098;2023-08-06T14:54:27;21.40;70.60
21108;DHT22;10712;52.944;9.098;2023-08-06T14:56:53;21.40;69.30
21108;DHT22;10712;52.944;9.098;2023-08-06T14:59:19;21.30;70.20
21108;DHT22;10712;52.944;9.098;2023-08-06T15:01:45;21.30;71.10
21108;DHT22;10712;52.944;9.098;2023-08-06T15:04:11;21.30;71.70
21108;DHT22;10712;52.944;9.098;2023-08-06T15:06:36;21.30;71.30
21108;DHT22;10712;52.944;9.098;2023-08-06T15:09:02;21.30;71.80
21108;DHT22;10712;52.944;9.098;2023-08-06T15:11:28;21.30;73.60
21108;DHT22;10712;52.944;9.098;2023-08-06T15:13:54;21.40;73.00
21108;DHT22;10712;52.944;9.098;2023-08-06T15:16:19;21.40;71.40
21108;DHT22;10712;52.944;9.098;2023-08-06T15:18:46;21.30;71.30
21108;DHT22;10712;52.944;9.098;2023-08-06T15:21:13;21.30;71.40
21108;DHT22;10712;52.944;9.098;2023-08-06T15:23:39;21.20;71.80
21108;DHT22;10712;52.944;9.098;2023-08-06T15:26:05;21.20;71.90
21108;DHT22;10712;52.944;9.098;2023-08-06T15:28:30;21.20;72.20
21108;DHT22;10712;52.944;9.098;2023-08-06T15:30:56;21.20;71.20
21108;DHT22;10712;52.944;9.098;2023-08-06T15:33:22;21.30;70.90
21108;DHT22;10712;52.944;9.098;2023-08-06T15:35:48;21.30;70.70
21108;DHT22;10712;52.944;9.098;2023-08-06T15:38:14;21.20;69.40